createdAt,value
2022-10-11T00:01:17.634Z,11.90
2022-10-11T00:03:46.944Z,8.50
2022-10-11T00:06:16.469Z,12.10
2022-10-11T00:08:46.110Z,4.53
2022-10-11T00:11:18.724Z,5.73
2022-10-11T00:13:48.371Z,10.83
2022-10-11T00:16:18.179Z,16.53
2022-10-11T00:18:47.894Z,9.03
2022-10-11T00:21:20.959Z,6.13
2022-10-11T00:23:49.754Z,6.87
2022-10-11T00:26:18.815Z,9.20
2022-10-11T00:28:51.156Z,11.07
2022-10-11T00:31:18.509Z,17.43
2022-10-11T00:33:48.067Z,11.10
2022-10-11T00:36:18.129Z,7.70
2022-10-11T00:38:51.406Z,6.60
2022-10-11T00:41:21.210Z,6.50
2022-10-11T00:44:10.654Z,6.13
2022-10-11T00:46:43.033Z,8.07
2022-10-11T00:49:16.824Z,11.57
2022-10-11T00:51:48.914Z,10.10
2022-10-11T00:54:22.092Z,12.70
2022-10-11T00:57:05.122Z,9.97
2022-10-11T00:59:36.348Z,7.10
2022-10-11T01:02:07.835Z,12.30
2022-10-11T01:05:28.631Z,11.50
2022-10-11T01:08:00.034Z,8.37
2022-10-11T01:10:30.154Z,7.00
2022-10-11T01:13:14.928Z,7.53
2022-10-11T01:15:53.841Z,11.33
2022-10-11T01:18:48.350Z,8.63
2022-10-11T01:21:49.542Z,6.10
2022-10-11T01:24:28.260Z,10.80
2022-10-11T01:27:37.778Z,12.13
2022-10-11T01:30:34.086Z,7.37
2022-10-11T01:33:04.274Z,9.77
2022-10-11T01:36:26.994Z,5.40
2022-10-11T01:38:57.533Z,7.33
2022-10-11T01:41:26.569Z,6.23
2022-10-11T01:43:59.839Z,10.87
2022-10-11T01:46:27.855Z,8.40
2022-10-11T01:48:57.363Z,10.50
2022-10-11T01:51:37.297Z,11.40
2022-10-11T01:54:49.811Z,8.50
2022-10-11T01:57:40.358Z,6.97
2022-10-11T02:00:21.024Z,4.17
2022-10-11T02:02:50.914Z,14.80
2022-10-11T02:05:42.229Z,6.67
2022-10-11T02:08:27.365Z,9.90
2022-10-11T02:11:06.241Z,12.27
2022-10-11T02:13:49.194Z,6.43
2022-10-11T02:16:19.482Z,10.27
2022-10-11T02:18:47.789Z,6.73
2022-10-11T02:21:22.881Z,4.57
2022-10-11T02:24:00.756Z,8.73
2022-10-11T02:26:30.331Z,11.47
2022-10-11T02:29:03.690Z,5.23
2022-10-11T02:31:33.146Z,6.03
2022-10-11T02:34:11.270Z,9.00
2022-10-11T02:36:52.077Z,7.00
2022-10-11T02:39:36.786Z,7.87
2022-10-11T02:42:10.821Z,9.50
2022-10-11T02:44:44.255Z,6.63
2022-10-11T02:47:14.191Z,24.43
2022-10-11T02:49:47.582Z,5.10
2022-10-11T02:52:17.458Z,6.70
2022-10-11T02:54:47.619Z,8.30
2022-10-11T02:57:17.938Z,11.53
2022-10-11T02:59:48.255Z,9.20
2022-10-11T03:02:18.110Z,8.07
2022-10-11T03:04:47.925Z,5.70
2022-10-11T03:07:21.814Z,8.80
2022-10-11T03:09:51.217Z,9.33
2022-10-11T03:12:21.129Z,10.50
2022-10-11T03:14:52.337Z,11.53
2022-10-11T03:17:37.370Z,9.40
2022-10-11T03:20:07.769Z,13.00
2022-10-11T03:22:42.341Z,8.97
2022-10-11T03:25:12.466Z,7.87
2022-10-11T03:27:42.162Z,5.67
2022-10-11T03:30:15.141Z,2.80
2022-10-11T03:32:48.067Z,9.27
2022-10-11T03:35:19.127Z,10.03
2022-10-11T03:37:49.473Z,11.33
2022-10-11T03:40:21.310Z,10.60
2022-10-11T03:42:51.218Z,6.90
2022-10-11T03:45:21.587Z,4.60
2022-10-11T03:47:51.573Z,4.53
2022-10-11T03:50:21.726Z,7.53
2022-10-11T03:52:51.581Z,9.13
2022-10-11T03:55:21.391Z,4.93
2022-10-11T03:57:53.766Z,8.17
2022-10-11T04:00:24.076Z,4.47
2022-10-11T04:02:54.488Z,5.63
2022-10-11T04:05:24.707Z,6.40
2022-10-11T04:07:54.706Z,13.90
2022-10-11T04:10:24.652Z,11.20
2022-10-11T04:12:55.089Z,7.07
2022-10-11T04:15:29.194Z,15.67
2022-10-11T04:17:59.539Z,11.10
2022-10-11T04:20:29.749Z,16.40
2022-10-11T04:22:59.641Z,7.33
2022-10-11T04:25:30.018Z,8.67
2022-10-11T04:27:59.547Z,11.37
2022-10-11T04:30:29.249Z,18.70
2022-10-11T04:32:58.619Z,10.53
2022-10-11T04:35:29.144Z,10.90
2022-10-11T04:37:58.438Z,7.40
2022-10-11T04:40:28.600Z,4.83
2022-10-11T04:43:01.269Z,13.60
2022-10-11T04:45:31.441Z,11.30
2022-10-11T04:48:00.844Z,9.37
2022-10-11T04:50:30.450Z,12.93
2022-10-11T04:53:00.119Z,7.60
2022-10-11T04:55:30.195Z,16.30
2022-10-11T04:58:01.411Z,11.63
2022-10-11T05:00:37.177Z,7.77
2022-10-11T05:03:07.223Z,12.67
2022-10-11T05:05:37.204Z,9.07
2022-10-11T05:08:06.666Z,8.40
2022-10-11T05:10:36.660Z,8.00
2022-10-11T05:13:06.892Z,24.63
2022-10-11T05:15:36.274Z,15.67
2022-10-11T05:18:09.134Z,10.87
2022-10-11T05:20:38.713Z,14.17
2022-10-11T05:23:08.221Z,12.17
2022-10-11T05:25:38.207Z,12.93
2022-10-11T05:28:08.191Z,9.23
2022-10-11T05:30:38.064Z,10.97
2022-10-11T05:33:07.463Z,10.77
2022-10-11T05:35:37.110Z,12.90
2022-10-11T05:38:07.444Z,12.70
2022-10-11T05:40:48.803Z,18.23
2022-10-11T05:43:18.615Z,10.03
2022-10-11T05:45:48.597Z,9.90
2022-10-11T05:48:18.519Z,15.63
2022-10-11T05:50:48.421Z,12.60
2022-10-11T05:53:21.661Z,11.40
2022-10-11T05:55:51.163Z,9.67
2022-10-11T05:58:20.865Z,27.23
2022-10-11T06:00:50.840Z,26.10
2022-10-11T06:03:20.549Z,13.97
2022-10-11T06:05:54.464Z,19.23
2022-10-11T06:08:22.695Z,13.63
2022-10-11T06:10:58.299Z,18.37
2022-10-11T06:13:25.347Z,20.77
2022-10-11T06:15:55.919Z,14.67
2022-10-11T06:18:26.449Z,11.43
2022-10-11T06:20:57.946Z,15.33
2022-10-11T06:23:27.956Z,11.60
2022-10-11T06:25:58.524Z,20.77
2022-10-11T06:28:35.186Z,20.27
2022-10-11T06:31:04.856Z,16.33
2022-10-11T06:33:33.909Z,19.30
2022-10-11T06:36:06.678Z,17.20
2022-10-11T06:38:33.536Z,16.00
2022-10-11T06:41:16.511Z,17.10
2022-10-11T06:43:43.217Z,17.23
2022-10-11T06:46:10.321Z,18.90
2022-10-11T06:48:45.043Z,13.53
2022-10-11T06:51:12.429Z,10.60
2022-10-11T06:53:38.997Z,16.23
2022-10-11T06:56:09.565Z,13.37
2022-10-11T06:58:37.039Z,25.80
2022-10-11T07:01:08.625Z,11.80
2022-10-11T07:03:45.174Z,26.03
2022-10-11T07:06:14.922Z,13.20
2022-10-11T07:08:41.378Z,12.40
2022-10-11T07:11:13.518Z,15.20
2022-10-11T07:13:42.111Z,19.13
2022-10-11T07:16:12.377Z,14.60
2022-10-11T07:18:42.718Z,14.50
2022-10-11T07:21:15.692Z,19.40
2022-10-11T07:23:45.574Z,24.73
2022-10-11T07:26:15.371Z,21.53
2022-10-11T07:28:44.878Z,16.83
2022-10-11T07:31:17.847Z,23.50
2022-10-11T07:33:44.569Z,19.13
2022-10-11T07:36:14.439Z,16.23
2022-10-11T07:38:45.837Z,21.87
2022-10-11T07:41:14.000Z,17.50
2022-10-11T07:43:46.234Z,28.00
2022-10-11T07:46:13.534Z,15.50
2022-10-11T07:48:47.058Z,17.00
2022-10-11T07:51:19.691Z,22.47
2022-10-11T07:53:48.821Z,26.30
2022-10-11T07:56:21.208Z,18.53
2022-10-11T07:58:52.202Z,21.73
2022-10-11T08:01:18.866Z,21.57
2022-10-11T08:03:46.852Z,14.33
2022-10-11T08:06:18.433Z,15.50
2022-10-11T08:08:46.175Z,21.07
2022-10-11T08:11:26.959Z,12.10
2022-10-11T08:13:53.308Z,20.20
2022-10-11T08:16:21.150Z,19.23
2022-10-11T08:18:49.846Z,17.93
2022-10-11T08:21:19.090Z,17.63
2022-10-11T08:23:48.476Z,22.93
2022-10-11T08:26:18.231Z,24.30
2022-10-11T08:28:48.217Z,22.07
2022-10-11T08:31:17.559Z,17.93
2022-10-11T08:33:49.792Z,19.60
2022-10-11T08:36:19.860Z,16.50
2022-10-11T08:38:49.763Z,19.33
2022-10-11T08:41:34.379Z,16.80
2022-10-11T08:44:51.796Z,16.60
2022-10-11T08:47:27.571Z,19.43
2022-10-11T08:49:58.500Z,15.57
2022-10-11T08:52:42.386Z,13.90
2022-10-11T08:55:28.106Z,17.67
2022-10-11T08:57:58.331Z,18.93
2022-10-11T09:00:32.459Z,15.60
2022-10-11T09:03:11.486Z,20.07
2022-10-11T09:06:31.334Z,12.33
2022-10-11T09:09:16.316Z,23.90
2022-10-11T09:12:08.491Z,15.67
2022-10-11T09:14:43.909Z,14.07
2022-10-11T09:17:35.887Z,10.73
2022-10-11T09:20:23.000Z,17.43
2022-10-11T09:23:01.763Z,19.23
2022-10-11T09:26:08.439Z,13.17
2022-10-11T09:28:44.419Z,15.40
2022-10-11T09:31:13.759Z,10.40
2022-10-11T09:33:49.452Z,10.70
2022-10-11T09:36:37.028Z,7.57
2022-10-11T09:39:32.705Z,15.90
2022-10-11T09:42:09.670Z,6.57
2022-10-11T09:44:45.815Z,10.43
2022-10-11T09:47:22.308Z,9.80
2022-10-11T09:50:05.889Z,17.30
2022-10-11T09:52:47.707Z,8.40
2022-10-11T09:55:34.413Z,13.00
2022-10-11T09:58:05.596Z,12.73
2022-10-11T10:00:35.768Z,10.17
2022-10-11T10:03:29.315Z,14.83
2022-10-11T10:06:23.885Z,12.60
2022-10-11T10:08:50.163Z,17.10
2022-10-11T10:11:17.934Z,13.47
2022-10-11T10:13:50.563Z,11.07
2022-10-11T10:16:32.984Z,15.57
2022-10-11T10:19:07.897Z,6.70
2022-10-11T10:21:44.101Z,15.13
2022-10-11T10:24:30.233Z,13.13
2022-10-11T10:27:10.063Z,10.73
2022-10-11T10:29:40.820Z,17.50
2022-10-11T10:32:15.172Z,13.43
2022-10-11T10:35:08.287Z,21.87
2022-10-11T10:37:43.715Z,16.57
2022-10-11T10:40:18.541Z,11.67
2022-10-11T10:42:49.540Z,8.67
2022-10-11T10:45:22.097Z,27.67
2022-10-11T10:48:37.755Z,12.80
2022-10-11T10:51:37.151Z,7.90
2022-10-11T10:54:28.573Z,11.83
2022-10-11T10:57:01.495Z,9.67
2022-10-11T10:59:34.761Z,12.80
2022-10-11T11:02:38.871Z,17.93
2022-10-11T11:05:11.487Z,12.17
2022-10-11T11:07:55.208Z,14.20
2022-10-11T11:10:36.650Z,11.47
2022-10-11T11:13:44.754Z,11.10
2022-10-11T11:16:31.817Z,9.73
2022-10-11T11:19:40.077Z,13.67
2022-10-11T11:22:20.188Z,11.70
2022-10-11T11:25:07.090Z,19.70
2022-10-11T11:28:02.344Z,10.80
2022-10-11T11:31:07.215Z,16.43
2022-10-11T11:33:59.754Z,11.93
2022-10-11T11:36:36.944Z,9.20
2022-10-11T11:39:16.917Z,5.40
2022-10-11T11:42:12.870Z,11.67
2022-10-11T11:44:48.110Z,7.27
2022-10-11T11:47:27.061Z,9.03
2022-10-11T11:50:03.490Z,14.13
2022-10-11T11:52:39.335Z,12.87
2022-10-11T11:55:22.784Z,11.20
2022-10-11T11:57:57.425Z,14.43
2022-10-11T12:00:30.772Z,8.93
2022-10-11T12:03:09.009Z,7.83
2022-10-11T12:05:35.741Z,5.17
2022-10-11T12:08:07.633Z,9.93
2022-10-11T12:10:48.782Z,8.57
2022-10-11T12:13:18.886Z,6.67
2022-10-11T12:15:58.571Z,7.00
2022-10-11T12:18:30.432Z,8.23
2022-10-11T12:21:03.178Z,7.57
2022-10-11T12:23:29.580Z,6.57
2022-10-11T12:26:55.772Z,6.47
2022-10-11T12:29:42.968Z,7.27
2022-10-11T12:32:27.510Z,6.33
2022-10-11T12:35:32.575Z,6.83
2022-10-11T12:38:29.541Z,15.17
2022-10-11T12:41:13.828Z,4.03
2022-10-11T12:43:47.362Z,7.57
2022-10-11T12:46:30.371Z,8.70
2022-10-11T12:49:23.627Z,13.63
2022-10-11T12:52:15.493Z,6.80
2022-10-11T12:55:03.865Z,6.07
2022-10-11T12:57:49.561Z,5.17
2022-10-11T13:00:30.363Z,5.50
2022-10-11T13:03:28.419Z,4.37
2022-10-11T13:06:21.434Z,7.33
2022-10-11T13:09:04.157Z,3.73
2022-10-11T13:11:38.355Z,7.93
2022-10-11T13:14:12.768Z,3.93
2022-10-11T13:16:45.619Z,3.93
2022-10-11T13:19:15.718Z,6.03
2022-10-11T13:21:49.737Z,2.80
2022-10-11T13:24:20.867Z,4.73
2022-10-11T13:26:53.576Z,12.33
2022-10-11T13:29:33.481Z,9.83
2022-10-11T13:32:19.292Z,4.33
2022-10-11T13:34:52.813Z,9.93
2022-10-11T13:37:28.649Z,4.17
2022-10-11T13:39:58.847Z,6.83
2022-10-11T13:42:30.818Z,3.00
2022-10-11T13:45:15.544Z,5.57
2022-10-11T13:47:42.000Z,4.93
2022-10-11T13:50:34.545Z,3.47
2022-10-11T13:53:07.305Z,3.33
2022-10-11T13:55:36.320Z,4.10
2022-10-11T13:58:09.305Z,2.83
2022-10-11T14:00:39.499Z,6.43
2022-10-11T14:03:11.659Z,3.30
2022-10-11T14:05:41.720Z,3.80
2022-10-11T14:08:34.901Z,3.80
2022-10-11T14:11:06.779Z,4.43
2022-10-11T14:13:42.995Z,5.80
2022-10-11T14:16:28.605Z,7.10
2022-10-11T14:18:58.807Z,2.80
2022-10-11T14:21:34.692Z,5.10
2022-10-11T14:24:06.944Z,5.53
2022-10-11T14:26:38.429Z,3.97
2022-10-11T14:29:31.167Z,7.30
2022-10-11T14:32:16.193Z,3.90
2022-10-11T14:34:47.930Z,5.93
2022-10-11T14:37:18.421Z,5.17
2022-10-11T14:39:48.476Z,4.60
2022-10-11T14:42:22.495Z,8.50
2022-10-11T14:44:53.604Z,5.40
2022-10-11T14:47:22.929Z,4.00
2022-10-11T14:49:52.378Z,5.57
2022-10-11T14:52:22.150Z,5.87
2022-10-11T14:54:51.926Z,5.43
2022-10-11T14:57:21.712Z,5.60
2022-10-11T14:59:54.221Z,6.43
2022-10-11T15:02:24.256Z,3.67
2022-10-11T15:04:53.829Z,5.87
2022-10-11T15:07:23.257Z,4.37
2022-10-11T15:09:53.979Z,6.73
2022-10-11T15:12:23.624Z,3.00
2022-10-11T15:14:53.244Z,7.00
2022-10-11T15:17:23.201Z,4.90
2022-10-11T15:19:53.663Z,5.77
2022-10-11T15:22:23.236Z,5.40
2022-10-11T15:24:53.422Z,5.43
2022-10-11T15:27:27.972Z,9.33
2022-10-11T15:29:56.221Z,7.17
2022-10-11T15:32:26.108Z,9.53
2022-10-11T15:34:55.572Z,3.53
2022-10-11T15:37:25.609Z,5.63
2022-10-11T15:39:55.010Z,4.50
2022-10-11T15:42:24.702Z,8.00
2022-10-11T15:44:54.184Z,6.43
2022-10-11T15:47:23.919Z,7.27
2022-10-11T15:49:53.287Z,8.57
2022-10-11T15:52:23.380Z,5.00
2022-10-11T15:54:57.140Z,6.33
2022-10-11T15:57:26.978Z,8.23
2022-10-11T15:59:57.567Z,6.27
2022-10-11T16:02:28.099Z,5.17
2022-10-11T16:04:57.562Z,3.40
2022-10-11T16:07:26.923Z,3.00
2022-10-11T16:09:56.540Z,4.53
2022-10-11T16:12:26.265Z,4.90
2022-10-11T16:14:56.277Z,5.63
2022-10-11T16:17:25.624Z,13.20
2022-10-11T16:19:56.815Z,12.43
2022-10-11T16:22:33.388Z,16.17
2022-10-11T16:25:02.009Z,13.07
2022-10-11T16:27:31.412Z,9.57
2022-10-11T16:30:00.595Z,12.33
2022-10-11T16:32:32.038Z,15.53
2022-10-11T16:34:59.850Z,13.47
2022-10-11T16:37:30.535Z,14.20
2022-10-11T16:39:58.728Z,12.07
2022-10-11T16:42:28.149Z,19.90
2022-10-11T16:44:57.704Z,15.63
2022-10-11T16:47:27.756Z,13.50
2022-10-11T16:50:01.370Z,9.27
2022-10-11T16:52:31.082Z,16.73
2022-10-11T16:55:00.329Z,16.00
2022-10-11T16:57:30.225Z,24.50
2022-10-11T16:59:59.688Z,17.30
2022-10-11T17:02:32.456Z,14.03
2022-10-11T17:04:58.979Z,12.30
2022-10-11T17:07:30.061Z,14.93
2022-10-11T17:10:00.443Z,10.80
2022-10-11T17:12:31.301Z,12.40
2022-10-11T17:15:01.172Z,13.23
2022-10-11T17:17:34.337Z,19.07
2022-10-11T17:20:04.235Z,24.00
2022-10-11T17:22:33.456Z,17.90
2022-10-11T17:25:04.838Z,32.90
2022-10-11T17:27:34.083Z,14.97
2022-10-11T17:30:05.655Z,13.67
2022-10-11T17:32:35.270Z,20.10
2022-10-11T17:35:08.200Z,14.40
2022-10-11T17:37:37.845Z,13.50
2022-10-11T17:40:08.560Z,16.93
2022-10-11T17:42:37.513Z,21.10
2022-10-11T17:45:07.924Z,17.93
2022-10-11T17:47:37.743Z,14.43
2022-10-11T17:50:07.888Z,20.80
2022-10-11T17:52:43.008Z,12.80
2022-10-11T17:55:12.037Z,23.20
2022-10-11T17:57:42.169Z,25.07
2022-10-11T18:00:12.356Z,21.13
2022-10-11T18:02:41.636Z,20.40
2022-10-11T18:05:13.624Z,17.50
2022-10-11T18:07:40.880Z,22.83
2022-10-11T18:10:14.454Z,16.30
2022-10-11T18:12:44.392Z,10.40
2022-10-11T18:15:15.020Z,16.40
2022-10-11T18:17:43.805Z,8.07
2022-10-11T18:20:15.310Z,19.63
2022-10-11T18:22:44.939Z,7.70
2022-10-11T18:25:14.648Z,15.03
2022-10-11T18:27:44.094Z,10.40
2022-10-11T18:30:14.056Z,11.57
2022-10-11T18:32:44.638Z,10.13
2022-10-11T18:35:14.230Z,15.50
2022-10-11T18:37:47.183Z,18.07
2022-10-11T18:40:17.009Z,11.73
2022-10-11T18:42:46.332Z,12.80
2022-10-11T18:45:16.893Z,6.23
2022-10-11T18:47:49.522Z,9.17
2022-10-11T18:50:16.461Z,13.07
2022-10-11T18:52:47.757Z,16.40
2022-10-11T18:55:18.287Z,11.00
2022-10-11T18:57:48.389Z,16.17
2022-10-11T19:00:39.738Z,17.70
2022-10-11T19:03:09.347Z,15.27
2022-10-11T19:05:37.984Z,11.33
2022-10-11T19:08:04.453Z,16.87
2022-10-11T19:10:30.750Z,17.93
2022-10-11T19:13:00.739Z,24.40
2022-10-11T19:15:28.930Z,30.60
2022-10-11T19:17:55.250Z,24.97
2022-10-11T19:20:21.458Z,34.37
2022-10-11T19:22:54.279Z,26.83
2022-10-11T19:25:21.490Z,29.30
2022-10-11T19:27:51.020Z,18.07
2022-10-11T19:30:23.917Z,16.53
2022-10-11T19:32:50.758Z,20.63
2022-10-11T19:35:20.241Z,19.93
2022-10-11T19:37:49.653Z,17.00
2022-10-11T19:40:19.642Z,17.40
2022-10-11T19:42:49.318Z,24.03
2022-10-11T19:45:19.037Z,15.73
2022-10-11T19:47:48.979Z,19.33
2022-10-11T19:50:21.232Z,18.87
2022-10-11T19:52:51.105Z,14.07
2022-10-11T19:55:20.598Z,19.93
2022-10-11T19:57:50.168Z,14.03
2022-10-11T20:00:19.830Z,17.90
2022-10-11T20:02:49.647Z,20.10
2022-10-11T20:05:19.145Z,20.53
2022-10-11T20:07:51.916Z,19.33
2022-10-11T20:10:21.744Z,29.10
2022-10-11T20:12:51.828Z,20.90
2022-10-11T20:15:21.199Z,19.03
2022-10-11T20:17:53.496Z,18.67
2022-10-11T20:20:22.809Z,18.50
2022-10-11T20:22:53.013Z,17.80
2022-10-11T20:25:22.554Z,17.80
2022-10-11T20:27:52.296Z,16.67
2022-10-11T20:30:22.600Z,15.57
2022-10-11T20:32:52.583Z,11.20
2022-10-11T20:35:27.689Z,20.97
2022-10-11T20:37:57.849Z,16.80
2022-10-11T20:40:27.779Z,15.00
2022-10-11T20:42:57.839Z,18.70
2022-10-11T20:45:27.650Z,15.97
2022-10-11T20:47:57.999Z,16.07
2022-10-11T20:50:27.525Z,20.70
2022-10-11T20:52:57.211Z,13.00
2022-10-11T20:55:26.953Z,18.40
2022-10-11T20:57:56.706Z,17.00
2022-10-11T21:00:26.306Z,13.33
2022-10-11T21:02:59.034Z,26.33
2022-10-11T21:05:28.977Z,21.60
2022-10-11T21:07:58.713Z,20.13
2022-10-11T21:10:29.213Z,15.90
2022-10-11T21:13:00.540Z,16.93
2022-10-11T21:15:30.417Z,17.80
2022-10-11T21:17:59.536Z,18.17
2022-10-11T21:20:29.633Z,19.20
2022-10-11T21:22:58.923Z,17.30
2022-10-11T21:25:28.742Z,16.27
2022-10-11T21:27:58.627Z,15.27
2022-10-11T21:30:28.211Z,18.47
2022-10-11T21:32:58.323Z,11.43
2022-10-11T21:35:29.539Z,17.17
2022-10-11T21:37:58.720Z,17.90
2022-10-11T21:40:37.982Z,23.37
2022-10-11T21:43:04.003Z,12.03
2022-10-11T21:45:36.501Z,15.73
2022-10-11T21:48:02.862Z,14.83
2022-10-11T21:50:33.063Z,13.47
2022-10-11T21:53:03.230Z,16.27
2022-10-11T21:55:33.264Z,17.23
2022-10-11T21:58:05.705Z,13.20
2022-10-11T22:00:35.047Z,15.90
2022-10-11T22:03:04.747Z,8.63
2022-10-11T22:05:34.330Z,15.83
2022-10-11T22:08:07.240Z,8.73
2022-10-11T22:10:36.616Z,9.47
2022-10-11T22:13:06.630Z,10.90
2022-10-11T22:15:36.393Z,10.37
2022-10-11T22:18:05.988Z,12.33
2022-10-11T22:20:35.768Z,10.77
2022-10-11T22:23:05.650Z,12.37
2022-10-11T22:25:36.069Z,12.83
2022-10-11T22:28:05.136Z,7.33
2022-10-11T22:30:34.403Z,11.27
2022-10-11T22:33:04.480Z,10.70
2022-10-11T22:35:37.894Z,13.33
2022-10-11T22:38:07.782Z,5.67
2022-10-11T22:40:39.439Z,6.63
2022-10-11T22:43:06.976Z,8.43
2022-10-11T22:45:36.670Z,13.00
2022-10-11T22:48:06.757Z,8.30
2022-10-11T22:50:36.357Z,7.50
2022-10-11T22:53:06.781Z,9.30
2022-10-11T22:55:35.743Z,5.40
2022-10-11T22:58:05.204Z,5.33
2022-10-11T23:00:35.107Z,9.87
2022-10-11T23:03:12.014Z,8.50
2022-10-11T23:05:38.377Z,10.23
2022-10-11T23:08:09.434Z,16.43
2022-10-11T23:10:39.802Z,9.40
2022-10-11T23:13:09.684Z,7.53
2022-10-11T23:15:40.350Z,11.03
2022-10-11T23:18:09.881Z,12.60
2022-10-11T23:20:42.681Z,10.40
2022-10-11T23:23:12.857Z,8.63
2022-10-11T23:25:42.730Z,11.00
2022-10-11T23:28:12.777Z,9.00
2022-10-11T23:30:42.365Z,8.17
2022-10-11T23:33:12.290Z,6.23
2022-10-11T23:35:41.666Z,10.73
2022-10-11T23:38:11.447Z,7.53
2022-10-11T23:40:41.487Z,7.30
2022-10-11T23:43:10.786Z,8.20
2022-10-11T23:45:42.770Z,5.40
2022-10-11T23:48:12.745Z,7.20
2022-10-11T23:50:42.995Z,9.60
2022-10-11T23:53:13.052Z,5.67
2022-10-11T23:55:42.359Z,5.00
2022-10-11T23:58:14.266Z,10.90
